Time;durP1;ratioP1;P1;durP2;ratioP2;P2;SDS_P1;SDS_P2;PMS_P1;PMS_P2;Temp;Humidity;BMP_temperature;BMP_pressure;BME280_temperature;BME280_humidity;BME280_pressure;Samples;Min_cycle;Max_cycle;Signal;HPM_P1;HPM_P2
2021/12/31 00:02:12;;;;;;;1.60;1.50;;;14.80;99.90;;;;;;5075796;28;20927;-65
2021/12/31 00:04:37;;;;;;;1.40;1.30;;;14.70;99.90;;;;;;5070806;28;20212;-65
2021/12/31 00:07:03;;;;;;;1.60;1.50;;;14.80;99.90;;;;;;5066652;28;20432;-65
2021/12/31 00:09:29;;;;;;;1.37;1.27;;;14.70;99.90;;;;;;5071180;28;20207;-65
2021/12/31 00:11:54;;;;;;;1.47;1.37;;;14.90;99.90;;;;;;5072506;28;20582;-65
2021/12/31 00:14:21;;;;;;;1.43;1.33;;;14.90;99.90;;;;;;5062165;28;20548;-65
2021/12/31 00:16:47;;;;;;;1.60;1.50;;;15.00;99.90;;;;;;5077667;28;20255;-65
2021/12/31 00:19:14;;;;;;;1.43;1.23;;;14.90;99.90;;;;;;5076745;28;20439;-65
2021/12/31 00:21:42;;;;;;;1.20;1.10;;;15.00;99.90;;;;;;5077738;28;20476;-64
2021/12/31 00:24:07;;;;;;;1.53;1.30;;;15.00;99.90;;;;;;5076469;28;20444;-64
2021/12/31 00:26:34;;;;;;;1.40;1.30;;;14.90;99.90;;;;;;5074911;28;20848;-65
2021/12/31 00:29:00;;;;;;;1.33;1.23;;;14.90;99.90;;;;;;5078956;28;20184;-65
2021/12/31 00:31:26;;;;;;;1.60;1.10;;;14.90;99.90;;;;;;5077293;28;20435;-65
2021/12/31 00:33:52;;;;;;;1.20;1.10;;;14.90;99.90;;;;;;5075040;28;20205;-65
2021/12/31 00:36:18;;;;;;;1.40;1.30;;;14.90;99.90;;;;;;5076062;28;20463;-65
2021/12/31 00:38:43;;;;;;;1.30;1.20;;;15.00;99.90;;;;;;5066488;28;20802;-65
2021/12/31 00:41:09;;;;;;;1.07;0.97;;;15.00;99.90;;;;;;5053712;28;20229;-65
2021/12/31 00:43:35;;;;;;;1.10;1.00;;;15.00;99.90;;;;;;5068862;28;20576;-65
2021/12/31 00:46:02;;;;;;;1.30;1.20;;;15.00;99.90;;;;;;5065621;28;20182;-65
2021/12/31 00:48:28;;;;;;;1.40;1.30;;;15.00;99.90;;;;;;5069475;28;20189;-65
2021/12/31 00:50:53;;;;;;;1.27;1.10;;;15.10;99.90;;;;;;5072541;28;20505;-66
2021/12/31 00:53:19;;;;;;;2.80;1.33;;;15.10;99.90;;;;;;5076134;28;20683;-65
2021/12/31 00:55:44;;;;;;;2.07;1.40;;;15.10;99.90;;;;;;5071433;28;20569;-65
2021/12/31 00:58:10;;;;;;;1.30;1.20;;;15.20;99.90;;;;;;5061563;28;20208;-65
2021/12/31 01:00:36;;;;;;;1.87;1.50;;;15.10;99.90;;;;;;5069599;28;20214;-65
2021/12/31 01:03:02;;;;;;;1.77;1.67;;;15.10;99.90;;;;;;5075959;28;20627;-66
2021/12/31 01:05:27;;;;;;;1.30;1.20;;;15.10;99.90;;;;;;5067722;28;20191;-64
2021/12/31 01:07:53;;;;;;;1.80;1.23;;;15.10;99.90;;;;;;5083847;28;20431;-65
2021/12/31 01:10:19;;;;;;;1.20;1.10;;;15.00;99.90;;;;;;5079302;28;20189;-64
2021/12/31 01:12:45;;;;;;;1.30;1.20;;;15.00;99.90;;;;;;5078341;28;20546;-62
2021/12/31 01:15:19;;;;;;;2.03;1.40;;;15.10;99.90;;;;;;5081199;28;20436;-65
2021/12/31 01:19:44;;;;;;;1.53;1.20;;;15.10;99.90;;;;;;5080679;28;20248;-65
2021/12/31 01:20:30;;;;;;;1.60;1.20;;;15.10;99.90;;;;;;5061836;28;20562;-65
2021/12/31 01:22:56;;;;;;;1.20;1.10;;;15.00;99.90;;;;;;5072156;28;20865;-65
2021/12/31 01:25:22;;;;;;;1.40;1.30;;;15.00;99.90;;;;;;5061972;28;20594;-66
2021/12/31 01:27:47;;;;;;;1.30;1.20;;;15.00;99.90;;;;;;5070240;28;20631;-65
2021/12/31 01:30:14;;;;;;;1.30;1.20;;;15.00;99.90;;;;;;5085391;28;20185;-66
2021/12/31 01:32:44;;;;;;;1.20;1.10;;;15.00;99.90;;;;;;5078436;28;20181;-66
2021/12/31 01:35:10;;;;;;;2.30;1.30;;;15.00;99.90;;;;;;5071170;28;20970;-66
2021/12/31 01:37:36;;;;;;;1.20;1.10;;;15.10;99.90;;;;;;5070603;28;20451;-66
2021/12/31 01:40:02;;;;;;;1.40;1.30;;;15.10;99.90;;;;;;5073327;28;20461;-66
2021/12/31 01:42:32;;;;;;;1.30;1.20;;;15.10;99.90;;;;;;5083428;28;20181;-65
2021/12/31 01:45:04;;;;;;;1.10;1.00;;;15.00;99.90;;;;;;5076140;28;20448;-65
2021/12/31 01:50:15;;;;;;;1.10;1.00;;;15.10;99.90;;;;;;5076764;28;20454;-66
2021/12/31 01:52:41;;;;;;;1.33;1.23;;;15.10;99.90;;;;;;5077048;28;20777;-65
2021/12/31 01:55:10;;;;;;;1.40;1.30;;;15.10;99.90;;;;;;5070459;28;20451;-65
2021/12/31 01:57:37;;;;;;;1.40;1.00;;;15.20;99.90;;;;;;5076804;28;20187;-65
2021/12/31 02:00:03;;;;;;;2.10;1.13;;;15.20;99.90;;;;;;5069453;28;20459;-65
2021/12/31 02:02:29;;;;;;;1.73;1.10;;;15.10;99.90;;;;;;5065898;28;20464;-66
2021/12/31 02:04:55;;;;;;;1.20;1.10;;;15.10;99.90;;;;;;5077193;28;20894;-61
2021/12/31 02:07:21;;;;;;;1.20;1.10;;;15.20;99.90;;;;;;5076133;28;20646;-66
2021/12/31 02:09:50;;;;;;;1.63;0.97;;;15.20;99.90;;;;;;5070726;28;20192;-65
2021/12/31 02:12:17;;;;;;;1.20;1.10;;;15.20;99.90;;;;;;5075649;28;20582;-65
2021/12/31 02:14:43;;;;;;;2.50;0.93;;;15.20;99.90;;;;;;5078439;28;20507;-64
2021/12/31 02:17:10;;;;;;;1.00;1.00;;;15.30;99.90;;;;;;5076038;28;20988;-65
2021/12/31 02:19:37;;;;;;;1.30;1.20;;;15.30;99.90;;;;;;5080111;28;20627;-64
2021/12/31 02:22:03;;;;;;;1.00;0.90;;;15.20;99.90;;;;;;5058168;28;20438;-65
2021/12/31 02:24:29;;;;;;;0.93;0.90;;;15.20;99.90;;;;;;5076522;28;20982;-65
2021/12/31 02:26:55;;;;;;;1.10;1.00;;;15.20;99.90;;;;;;5075398;28;20528;-62
2021/12/31 02:29:25;;;;;;;1.30;1.20;;;15.20;99.90;;;;;;5080751;28;20432;-66
2021/12/31 02:31:52;;;;;;;1.20;1.10;;;15.20;99.90;;;;;;5074573;28;20272;-64
2021/12/31 02:34:18;;;;;;;1.23;1.13;;;15.20;99.90;;;;;;5060115;28;20496;-65
2021/12/31 02:36:43;;;;;;;1.10;1.00;;;15.20;99.90;;;;;;5065737;28;20585;-65
2021/12/31 02:39:09;;;;;;;1.07;0.97;;;15.10;99.90;;;;;;5070140;28;20192;-66
2021/12/31 02:41:35;;;;;;;1.87;1.77;;;15.20;99.90;;;;;;5065830;28;20227;-65
2021/12/31 02:44:01;;;;;;;1.10;1.00;;;15.10;99.90;;;;;;5074371;28;20220;-66
2021/12/31 02:46:26;;;;;;;1.13;1.03;;;15.10;99.90;;;;;;5080785;28;20940;-65
2021/12/31 02:48:56;;;;;;;1.20;1.10;;;15.20;99.90;;;;;;5068167;28;20174;-65
2021/12/31 02:51:27;;;;;;;1.37;1.00;;;15.20;99.90;;;;;;5059324;28;20518;-65
2021/12/31 02:53:54;;;;;;;1.30;1.20;;;15.20;99.90;;;;;;5078010;28;20432;-64
2021/12/31 02:56:21;;;;;;;1.03;0.93;;;15.20;99.90;;;;;;5054059;28;20435;-65
2021/12/31 02:58:47;;;;;;;0.80;0.80;;;15.20;99.90;;;;;;5076530;28;20502;-68
2021/12/31 03:01:13;;;;;;;1.20;1.10;;;15.20;99.90;;;;;;5059765;28;20496;-66
2021/12/31 03:03:40;;;;;;;1.87;1.20;;;15.20;99.90;;;;;;5074423;28;20927;-65
2021/12/31 03:06:09;;;;;;;1.10;1.00;;;15.20;99.90;;;;;;5073620;28;20190;-65
2021/12/31 03:08:38;;;;;;;1.20;1.10;;;15.30;99.90;;;;;;5074308;28;20527;-65
2021/12/31 03:11:06;;;;;;;1.33;1.10;;;15.30;99.90;;;;;;5074740;28;21006;-66
2021/12/31 03:13:34;;;;;;;1.90;1.17;;;15.20;99.90;;;;;;5071840;28;20435;-67
2021/12/31 03:16:01;;;;;;;1.20;1.10;;;15.20;99.90;;;;;;5074630;28;20447;-65
2021/12/31 03:18:28;;;;;;;1.17;1.07;;;15.20;99.90;;;;;;5075576;28;20467;-57
2021/12/31 03:21:00;;;;;;;1.50;1.10;;;15.30;99.90;;;;;;5073663;28;20467;-65
2021/12/31 03:23:25;;;;;;;1.33;1.10;;;15.20;99.90;;;;;;5069344;28;20444;-65
2021/12/31 03:25:51;;;;;;;1.10;1.00;;;15.30;99.90;;;;;;5076039;28;20436;-65
2021/12/31 03:28:18;;;;;;;2.13;1.20;;;15.20;99.90;;;;;;5078188;28;20436;-65
2021/12/31 03:30:43;;;;;;;1.23;1.13;;;15.20;99.90;;;;;;5067476;28;20453;-66
2021/12/31 03:33:09;;;;;;;1.03;0.93;;;15.30;99.90;;;;;;5074138;28;20431;-66
2021/12/31 03:35:34;;;;;;;1.50;1.40;;;15.20;99.90;;;;;;5073926;28;20247;-67
2021/12/31 03:38:00;;;;;;;1.20;1.10;;;15.20;99.90;;;;;;5081953;28;20242;-66
2021/12/31 03:40:26;;;;;;;1.03;0.93;;;15.20;99.90;;;;;;5078388;28;20212;-65
2021/12/31 03:42:51;;;;;;;1.50;1.20;;;15.20;99.90;;;;;;5079584;28;20508;-67
2021/12/31 03:45:17;;;;;;;1.07;0.90;;;15.20;99.90;;;;;;5073467;28;20193;-59
2021/12/31 03:47:42;;;;;;;1.10;1.00;;;15.20;99.90;;;;;;5071739;28;20639;-65
2021/12/31 03:50:08;;;;;;;1.30;1.20;;;15.20;99.90;;;;;;5078473;28;20193;-66
2021/12/31 03:52:38;;;;;;;1.43;1.17;;;15.20;99.90;;;;;;5076082;28;20651;-65
2021/12/31 03:55:06;;;;;;;1.23;0.93;;;15.10;99.90;;;;;;5078074;28;20193;-65
2021/12/31 03:57:32;;;;;;;1.23;1.10;;;15.10;99.90;;;;;;5068575;28;20543;-66
2021/12/31 03:59:57;;;;;;;1.20;1.10;;;15.10;99.90;;;;;;5067246;28;20502;-68
2021/12/31 04:02:23;;;;;;;1.10;1.00;;;15.10;99.90;;;;;;5071331;28;20776;-66
2021/12/31 04:04:48;;;;;;;1.30;1.20;;;15.10;99.90;;;;;;5080995;28;20189;-65
2021/12/31 04:07:14;;;;;;;1.20;1.10;;;15.10;99.90;;;;;;5069524;28;20184;-66
2021/12/31 04:09:39;;;;;;;1.10;1.00;;;15.00;99.90;;;;;;5070190;28;21071;-66
2021/12/31 04:12:05;;;;;;;1.30;1.20;;;14.90;99.90;;;;;;5059593;28;20182;-65
2021/12/31 04:14:31;;;;;;;1.60;1.40;;;14.80;99.90;;;;;;5054205;28;20533;-66
2021/12/31 04:16:56;;;;;;;1.80;1.40;;;14.70;99.90;;;;;;5078966;28;20486;-65
2021/12/31 04:19:22;;;;;;;1.10;1.00;;;14.60;99.90;;;;;;5077135;28;20193;-65
2021/12/31 04:21:49;;;;;;;1.20;1.10;;;14.60;99.90;;;;;;5075879;28;20225;-65
2021/12/31 04:24:27;;;;;;;1.37;1.27;;;14.60;99.90;;;;;;5078089;28;20178;-67
2021/12/31 04:26:52;;;;;;;1.20;1.10;;;14.50;99.90;;;;;;5074051;28;20442;-65
2021/12/31 04:29:18;;;;;;;1.30;1.20;;;14.50;99.90;;;;;;5079671;28;20443;-65
2021/12/31 04:31:43;;;;;;;1.40;1.30;;;14.40;99.90;;;;;;5082756;28;20305;-62
2021/12/31 04:34:09;;;;;;;1.20;1.10;;;14.40;99.90;;;;;;5076645;28;20186;-65
2021/12/31 04:36:34;;;;;;;1.97;1.30;;;14.30;99.90;;;;;;5075848;28;20246;-64
2021/12/31 04:39:00;;;;;;;2.20;1.30;;;14.30;99.90;;;;;;5081647;28;20527;-64
2021/12/31 04:41:26;;;;;;;1.30;1.20;;;14.30;99.90;;;;;;5085440;28;20204;-65
2021/12/31 04:43:51;;;;;;;1.53;1.27;;;14.30;99.90;;;;;;5074803;28;20182;-65
2021/12/31 04:46:17;;;;;;;1.73;1.50;;;14.40;99.90;;;;;;5075129;28;20189;-65
2021/12/31 04:48:42;;;;;;;1.20;1.10;;;14.40;99.90;;;;;;5071203;28;20214;-65
2021/12/31 04:51:08;;;;;;;2.33;1.30;;;14.40;99.90;;;;;;5078835;28;20288;-65
2021/12/31 04:53:34;;;;;;;1.60;1.43;;;14.40;99.90;;;;;;5078200;28;20192;-65
2021/12/31 04:55:59;;;;;;;1.50;1.40;;;14.40;99.90;;;;;;5077275;28;20185;-66
2021/12/31 04:58:25;;;;;;;1.37;1.27;;;14.30;99.90;;;;;;5081605;28;20193;-65
2021/12/31 05:00:51;;;;;;;1.87;1.47;;;14.40;99.90;;;;;;5081765;28;20209;-67
2021/12/31 05:03:16;;;;;;;1.43;1.13;;;14.40;99.90;;;;;;5079575;28;20177;-65
2021/12/31 05:05:42;;;;;;;1.60;1.50;;;14.40;99.90;;;;;;5072173;28;20730;-65
2021/12/31 05:08:07;;;;;;;1.40;1.30;;;14.30;99.90;;;;;;5074134;28;20200;-67
2021/12/31 05:10:33;;;;;;;3.17;1.40;;;14.40;99.90;;;;;;5083060;28;20512;-67
2021/12/31 05:13:01;;;;;;;1.60;1.50;;;14.50;99.90;;;;;;5073052;28;20563;-66
2021/12/31 05:15:28;;;;;;;3.30;1.40;;;14.50;99.90;;;;;;5079979;28;20497;-66
2021/12/31 05:17:56;;;;;;;1.30;1.20;;;14.50;99.90;;;;;;5082066;28;20485;-65
2021/12/31 05:20:22;;;;;;;1.60;1.50;;;14.60;99.90;;;;;;5071530;28;20658;-66
2021/12/31 05:22:48;;;;;;;1.30;1.20;;;14.60;99.90;;;;;;5079134;28;20510;-66
2021/12/31 05:25:13;;;;;;;1.33;1.10;;;14.80;99.90;;;;;;5078332;28;20663;-67
2021/12/31 05:27:39;;;;;;;1.30;1.20;;;14.70;99.90;;;;;;5077567;28;20189;-66
2021/12/31 05:30:06;;;;;;;1.50;1.40;;;14.70;99.90;;;;;;5083512;28;20200;-67
2021/12/31 05:32:32;;;;;;;1.37;1.27;;;14.70;99.90;;;;;;5082675;28;20177;-67
2021/12/31 05:34:57;;;;;;;1.47;1.37;;;14.80;99.90;;;;;;5081849;28;20766;-66
2021/12/31 05:37:23;;;;;;;1.23;1.10;;;14.90;99.90;;;;;;5078935;28;20440;-66
2021/12/31 05:39:48;;;;;;;2.17;1.50;;;14.90;99.90;;;;;;5083610;28;20185;-66
2021/12/31 05:42:14;;;;;;;1.30;1.20;;;14.90;99.90;;;;;;5074252;28;20186;-65
2021/12/31 05:44:40;;;;;;;1.30;1.20;;;14.90;99.90;;;;;;5086777;28;20191;-65
2021/12/31 05:47:05;;;;;;;1.40;1.03;;;14.90;99.90;;;;;;5081481;28;20177;-67
2021/12/31 05:49:31;;;;;;;2.33;1.30;;;14.90;99.90;;;;;;5081323;28;20261;-61
2021/12/31 05:51:57;;;;;;;1.20;1.10;;;14.90;99.90;;;;;;5055734;28;20565;-65
2021/12/31 05:54:23;;;;;;;1.17;1.07;;;14.90;99.90;;;;;;5073503;28;20194;-65
2021/12/31 05:56:48;;;;;;;1.17;1.07;;;14.90;99.90;;;;;;5083341;28;20179;-64
2021/12/31 05:59:14;;;;;;;1.73;1.10;;;14.90;99.90;;;;;;5066942;28;20453;-64
2021/12/31 06:01:39;;;;;;;1.27;1.17;;;14.90;99.90;;;;;;5058112;28;20557;-63
2021/12/31 06:04:06;;;;;;;1.67;1.43;;;14.80;99.90;;;;;;5061580;28;20261;-64
2021/12/31 06:06:31;;;;;;;1.23;1.13;;;14.80;99.90;;;;;;5067754;28;20547;-64
2021/12/31 06:08:57;;;;;;;1.67;1.00;;;14.80;99.90;;;;;;5053184;28;20441;-60
2021/12/31 06:11:22;;;;;;;2.10;1.30;;;14.80;99.90;;;;;;5074003;28;20197;-64
2021/12/31 06:13:55;;;;;;;1.43;1.20;;;14.70;99.90;;;;;;5073338;28;20185;-64
2021/12/31 06:16:20;;;;;;;1.30;1.20;;;14.60;99.90;;;;;;5071479;28;20184;-64
2021/12/31 06:18:46;;;;;;;2.20;1.33;;;14.60;99.90;;;;;;5070818;28;20454;-64
2021/12/31 06:21:12;;;;;;;1.30;1.20;;;14.60;99.90;;;;;;5074987;28;20233;-66
2021/12/31 06:23:37;;;;;;;1.10;1.00;;;14.60;99.90;;;;;;5076985;28;20183;-66
2021/12/31 06:26:03;;;;;;;1.70;1.20;;;14.50;99.90;;;;;;5076369;28;20222;-65
2021/12/31 06:28:28;;;;;;;1.33;1.23;;;14.50;99.90;;;;;;5077511;28;20194;-65
2021/12/31 06:30:54;;;;;;;1.70;1.37;;;14.50;99.90;;;;;;5073491;28;20334;-64
2021/12/31 06:33:19;;;;;;;1.57;1.40;;;14.50;99.90;;;;;;5077527;28;20552;-65
2021/12/31 06:35:45;;;;;;;1.30;1.20;;;14.50;99.90;;;;;;5063401;28;20621;-65
2021/12/31 06:38:11;;;;;;;1.20;1.07;;;14.50;99.90;;;;;;5073777;28;20185;-65
2021/12/31 06:40:37;;;;;;;1.30;1.20;;;14.60;99.90;;;;;;5073861;28;20202;-65
2021/12/31 06:43:03;;;;;;;1.10;1.00;;;14.60;99.90;;;;;;5074017;28;20439;-65
2021/12/31 06:45:28;;;;;;;1.50;1.40;;;14.60;99.90;;;;;;5068332;28;20446;-65
2021/12/31 06:47:54;;;;;;;1.20;1.07;;;14.70;99.90;;;;;;5075621;28;20955;-64
2021/12/31 06:50:20;;;;;;;2.87;1.20;;;14.70;99.90;;;;;;5074565;28;20229;-65
2021/12/31 06:52:46;;;;;;;1.77;1.30;;;14.80;99.90;;;;;;5066560;28;20527;-61
2021/12/31 06:55:12;;;;;;;1.20;1.10;;;14.80;99.90;;;;;;5076112;28;20246;-66
2021/12/31 06:57:38;;;;;;;1.50;1.17;;;14.80;99.90;;;;;;5074232;28;20440;-65
2021/12/31 07:00:05;;;;;;;1.10;1.00;;;14.90;99.90;;;;;;5069792;28;20490;-65
2021/12/31 07:02:31;;;;;;;1.43;1.33;;;14.90;99.90;;;;;;5058245;28;20191;-65
2021/12/31 07:04:56;;;;;;;1.30;1.20;;;14.90;99.90;;;;;;5066918;28;20437;-65
2021/12/31 07:07:22;;;;;;;1.60;1.50;;;14.90;99.90;;;;;;5057250;28;20196;-65
2021/12/31 07:09:47;;;;;;;1.67;1.40;;;15.00;99.90;;;;;;5077600;28;20186;-65
2021/12/31 07:12:13;;;;;;;3.00;1.50;;;15.00;99.90;;;;;;5070677;28;20181;-64
2021/12/31 07:14:38;;;;;;;1.60;1.50;;;14.90;99.90;;;;;;5063869;28;20177;-65
2021/12/31 07:17:04;;;;;;;2.47;1.70;;;14.90;99.90;;;;;;5079823;28;20229;-66
2021/12/31 07:19:30;;;;;;;1.83;1.40;;;15.00;99.90;;;;;;5071033;28;20181;-62
2021/12/31 07:21:55;;;;;;;1.60;1.50;;;15.00;99.90;;;;;;5070421;28;20230;-64
2021/12/31 07:24:21;;;;;;;1.43;1.33;;;15.00;99.90;;;;;;5069506;28;20854;-62
2021/12/31 07:26:46;;;;;;;1.77;1.67;;;15.00;99.90;;;;;;5075934;28;20253;-63
2021/12/31 07:29:12;;;;;;;1.80;1.70;;;15.10;99.90;;;;;;5064981;28;20173;-57
2021/12/31 07:31:37;;;;;;;2.00;1.90;;;15.00;99.90;;;;;;5077541;28;20207;-64
2021/12/31 07:34:03;;;;;;;1.53;1.43;;;15.10;99.90;;;;;;5080645;28;20192;-62
2021/12/31 07:36:29;;;;;;;1.93;1.60;;;15.00;99.90;;;;;;5069679;28;20181;-63
2021/12/31 07:39:00;;;;;;;1.50;1.40;;;15.10;99.90;;;;;;5079722;28;20177;-54
2021/12/31 07:41:26;;;;;;;1.77;1.67;;;15.10;99.90;;;;;;5065352;28;20832;-63
2021/12/31 07:43:52;;;;;;;1.73;1.63;;;15.10;99.90;;;;;;5066509;28;20435;-63
2021/12/31 07:46:17;;;;;;;1.90;1.80;;;15.10;99.90;;;;;;5070197;28;20461;-63
2021/12/31 07:48:43;;;;;;;2.27;2.10;;;15.10;99.90;;;;;;5070836;28;20530;-62
2021/12/31 07:51:08;;;;;;;1.77;1.67;;;15.10;99.90;;;;;;5051479;28;20196;-61
2021/12/31 07:53:34;;;;;;;1.80;1.70;;;15.00;99.90;;;;;;5070418;28;20196;-62
2021/12/31 07:55:59;;;;;;;2.63;1.73;;;15.10;99.90;;;;;;5065672;28;20181;-62
2021/12/31 07:58:25;;;;;;;1.60;1.50;;;15.20;99.90;;;;;;5066267;28;20198;-64
2021/12/31 08:00:50;;;;;;;1.90;1.70;;;15.30;99.90;;;;;;5067874;28;20242;-63
2021/12/31 08:03:16;;;;;;;1.97;1.87;;;15.20;99.90;;;;;;5071152;28;20202;-61
2021/12/31 08:05:42;;;;;;;2.10;1.63;;;15.30;99.90;;;;;;5071861;28;20189;-62
2021/12/31 08:08:07;;;;;;;2.40;1.90;;;15.30;99.90;;;;;;5072366;28;20276;-61
2021/12/31 08:10:34;;;;;;;1.73;1.63;;;15.30;99.90;;;;;;5070753;28;20190;-62
2021/12/31 08:13:01;;;;;;;2.07;1.97;;;15.30;99.90;;;;;;5080884;28;20296;-62
2021/12/31 08:15:28;;;;;;;2.10;1.90;;;15.30;99.90;;;;;;5079271;28;20439;-62
2021/12/31 08:17:56;;;;;;;2.43;2.23;;;15.30;99.90;;;;;;5068702;28;20593;-63
2021/12/31 08:20:23;;;;;;;1.80;1.70;;;15.40;99.90;;;;;;5082136;28;20476;-62
2021/12/31 08:22:49;;;;;;;1.70;1.60;;;15.30;99.90;;;;;;5070472;28;20513;-62
2021/12/31 08:25:15;;;;;;;1.90;1.80;;;15.30;99.90;;;;;;5069088;28;20432;-65
2021/12/31 08:27:41;;;;;;;2.10;1.90;;;15.30;99.90;;;;;;5042232;28;20494;-65
2021/12/31 08:30:08;;;;;;;1.87;1.50;;;15.20;99.90;;;;;;5068986;28;20207;-64
2021/12/31 08:32:34;;;;;;;1.70;1.30;;;15.30;99.90;;;;;;5070054;28;20869;-62
2021/12/31 08:35:00;;;;;;;1.90;1.67;;;15.30;99.90;;;;;;5071810;28;20443;-65
2021/12/31 08:37:26;;;;;;;1.80;1.70;;;15.40;99.90;;;;;;5062325;28;20448;-65
2021/12/31 08:39:51;;;;;;;2.00;1.90;;;15.50;99.90;;;;;;5060202;28;20257;-66
2021/12/31 08:42:17;;;;;;;1.80;1.70;;;15.50;99.90;;;;;;5068446;28;20190;-62
2021/12/31 08:44:43;;;;;;;1.53;1.43;;;15.50;99.90;;;;;;5072009;28;20540;-65
2021/12/31 08:47:09;;;;;;;1.80;1.70;;;15.40;99.90;;;;;;5074727;28;20472;-66
2021/12/31 08:49:34;;;;;;;1.60;1.50;;;15.40;99.90;;;;;;5058503;28;20550;-67
2021/12/31 08:52:00;;;;;;;1.83;1.73;;;15.40;99.90;;;;;;5075323;28;20189;-66
2021/12/31 08:54:26;;;;;;;1.90;1.80;;;15.40;99.90;;;;;;5075931;28;20639;-67
2021/12/31 08:56:51;;;;;;;2.10;2.00;;;15.40;99.90;;;;;;5078239;28;20470;-69
2021/12/31 08:59:19;;;;;;;2.13;1.93;;;15.40;99.90;;;;;;5077749;28;20189;-66
2021/12/31 09:01:45;;;;;;;1.97;1.87;;;15.40;99.90;;;;;;5084644;28;20215;-67
2021/12/31 09:04:10;;;;;;;2.00;1.70;;;15.40;99.90;;;;;;5072277;28;20431;-67
2021/12/31 09:06:36;;;;;;;2.10;2.00;;;15.50;99.90;;;;;;5068702;28;20437;-67
2021/12/31 09:09:03;;;;;;;2.03;1.93;;;15.50;99.90;;;;;;5080862;28;20189;-67
2021/12/31 09:11:29;;;;;;;2.30;1.90;;;15.60;99.90;;;;;;5074543;28;20874;-66
2021/12/31 09:13:56;;;;;;;2.50;2.30;;;15.60;99.90;;;;;;5072212;28;20445;-67
2021/12/31 09:16:21;;;;;;;2.20;2.00;;;15.60;99.90;;;;;;5065794;28;20490;-65
2021/12/31 09:18:47;;;;;;;2.10;2.00;;;15.60;99.90;;;;;;5081133;28;21221;-67
2021/12/31 09:21:17;;;;;;;2.73;2.00;;;15.60;99.90;;;;;;5076791;28;20200;-67
2021/12/31 09:23:44;;;;;;;1.97;1.83;;;15.70;99.90;;;;;;5072155;28;20436;-67
2021/12/31 09:26:09;;;;;;;1.90;1.80;;;15.70;99.90;;;;;;5077094;28;20449;-67
2021/12/31 09:28:35;;;;;;;2.60;2.40;;;15.70;99.90;;;;;;5073068;28;20448;-67
2021/12/31 09:31:02;;;;;;;2.20;1.90;;;15.80;99.90;;;;;;5052330;28;20213;-66
2021/12/31 09:33:29;;;;;;;2.00;1.90;;;15.70;99.90;;;;;;5059380;28;20184;-67
2021/12/31 09:35:54;;;;;;;2.60;2.40;;;15.70;99.90;;;;;;5057344;28;20448;-67
2021/12/31 09:38:20;;;;;;;2.20;2.10;;;15.70;99.90;;;;;;5061290;28;20439;-64
2021/12/31 09:40:45;;;;;;;1.90;1.80;;;15.70;99.90;;;;;;5067408;28;20614;-65
2021/12/31 09:43:12;;;;;;;1.83;1.67;;;15.70;99.90;;;;;;5075117;28;20193;-66
2021/12/31 09:45:44;;;;;;;2.40;2.20;;;15.70;99.90;;;;;;5076720;28;20174;-67
2021/12/31 15:39:20;;;;;;;3.23;3.03;;;15.20;99.90;;;;;;5476835;23;20506;-53
2021/12/31 15:41:46;;;;;;;2.90;2.70;;;15.20;99.90;;;;;;4952340;28;20464;-53
2021/12/31 15:44:14;;;;;;;3.43;3.20;;;15.20;99.90;;;;;;4956489;28;20431;-52
2021/12/31 15:46:40;;;;;;;4.47;3.53;;;15.20;99.90;;;;;;4950735;28;20441;-54
2021/12/31 15:49:07;;;;;;;3.47;3.27;;;15.10;99.90;;;;;;4951603;28;20446;-50
2021/12/31 15:51:35;;;;;;;3.30;3.10;;;15.10;99.90;;;;;;4950040;28;20536;-56
2021/12/31 15:54:01;;;;;;;3.50;3.30;;;15.00;99.90;;;;;;4958102;28;20576;-53
2021/12/31 15:56:27;;;;;;;3.20;3.00;;;15.10;99.90;;;;;;4956073;28;20469;-58
2021/12/31 15:58:54;;;;;;;3.40;3.20;;;15.10;99.90;;;;;;4950534;28;20269;-54
2021/12/31 16:01:20;;;;;;;4.20;3.83;;;15.00;99.90;;;;;;4951567;28;20300;-54
2021/12/31 16:03:45;;;;;;;3.33;3.13;;;15.00;99.90;;;;;;4953134;28;20528;-57
2021/12/31 16:06:11;;;;;;;3.67;3.37;;;14.90;99.90;;;;;;4953378;28;20189;-54
2021/12/31 16:08:36;;;;;;;3.80;3.50;;;14.90;99.90;;;;;;4950681;28;20186;-53
2021/12/31 16:11:03;;;;;;;3.90;3.60;;;14.90;99.90;;;;;;4960406;28;20197;-51
2021/12/31 16:13:28;;;;;;;4.10;3.53;;;14.90;99.90;;;;;;4954166;28;20190;-52
2021/12/31 16:15:55;;;;;;;3.60;3.30;;;15.00;99.90;;;;;;4955228;28;20447;-54
2021/12/31 16:18:21;;;;;;;3.30;3.10;;;14.90;99.90;;;;;;4951279;28;20190;-55
2021/12/31 16:20:47;;;;;;;3.93;3.53;;;14.90;99.90;;;;;;4949174;28;20945;-52
2021/12/31 16:23:12;;;;;;;4.10;3.70;;;15.00;99.90;;;;;;4953323;28;20445;-56
2021/12/31 16:25:38;;;;;;;3.77;3.47;;;15.00;99.90;;;;;;4948518;28;20650;-55
2021/12/31 16:28:05;;;;;;;3.90;3.60;;;15.00;99.90;;;;;;4951501;28;20186;-54
2021/12/31 16:30:31;;;;;;;3.30;3.10;;;15.00;99.90;;;;;;4958905;28;20448;-54
2021/12/31 16:32:57;;;;;;;3.77;3.53;;;15.00;99.90;;;;;;4956854;28;20457;-55
2021/12/31 16:35:22;;;;;;;4.03;3.73;;;15.00;99.90;;;;;;4946616;28;20449;-54
2021/12/31 16:37:48;;;;;;;4.43;4.03;;;15.00;99.90;;;;;;4960216;28;20281;-54
2021/12/31 16:40:20;;;;;;;3.70;3.40;;;15.00;99.90;;;;;;4959240;28;20237;-56
2021/12/31 16:42:47;;;;;;;3.70;3.40;;;14.90;99.90;;;;;;4954550;28;20170;-56
2021/12/31 16:45:17;;;;;;;4.00;3.70;;;14.90;99.90;;;;;;4960041;28;20448;-56
2021/12/31 16:47:43;;;;;;;4.27;3.87;;;14.90;99.90;;;;;;4958267;28;20444;-54
2021/12/31 16:50:09;;;;;;;4.00;3.70;;;14.90;99.90;;;;;;4952751;28;20772;-58
2021/12/31 16:52:34;;;;;;;4.30;4.00;;;14.90;99.90;;;;;;4945034;28;20503;-59
2021/12/31 16:55:04;;;;;;;4.17;3.87;;;14.90;99.90;;;;;;4958804;28;20460;-57
2021/12/31 16:57:29;;;;;;;3.83;3.53;;;14.90;99.90;;;;;;4945290;28;20188;-56
2021/12/31 16:59:55;;;;;;;4.07;3.77;;;15.00;99.90;;;;;;4944624;28;20452;-59
2021/12/31 17:02:20;;;;;;;4.20;3.80;;;15.00;99.90;;;;;;4944145;28;20469;-49
2021/12/31 17:04:46;;;;;;;4.50;4.10;;;15.00;99.90;;;;;;4945230;28;20194;-52
2021/12/31 17:07:12;;;;;;;4.37;4.07;;;14.90;99.90;;;;;;4944910;28;20539;-55
2021/12/31 17:09:38;;;;;;;4.40;4.10;;;14.90;99.90;;;;;;4950141;28;20229;-54
2021/12/31 17:12:04;;;;;;;4.00;3.70;;;14.90;99.90;;;;;;4951769;28;21206;-52
2021/12/31 17:14:30;;;;;;;5.00;4.03;;;14.80;99.90;;;;;;4951843;28;20190;-54
2021/12/31 17:16:55;;;;;;;4.10;3.70;;;14.90;99.90;;;;;;4960436;28;20437;-49
2021/12/31 17:19:21;;;;;;;3.70;3.50;;;14.90;99.90;;;;;;4961028;28;20186;-50
2021/12/31 17:21:47;;;;;;;4.37;4.07;;;14.90;99.90;;;;;;4952515;28;20229;-50
2021/12/31 17:24:12;;;;;;;4.43;4.07;;;14.90;99.90;;;;;;4953376;28;20190;-55
2021/12/31 17:26:38;;;;;;;4.50;4.20;;;14.90;99.90;;;;;;4955524;28;20249;-54
2021/12/31 17:29:03;;;;;;;3.90;3.53;;;14.90;99.90;;;;;;4947046;28;20185;-55
2021/12/31 17:31:29;;;;;;;4.30;3.90;;;14.90;99.90;;;;;;4956273;28;20251;-54
2021/12/31 17:33:55;;;;;;;5.30;4.20;;;14.90;99.90;;;;;;4968530;28;20192;-55
2021/12/31 17:36:20;;;;;;;4.40;4.00;;;14.90;99.90;;;;;;4959852;28;20189;-57
2021/12/31 17:38:46;;;;;;;3.80;3.50;;;14.90;99.90;;;;;;4957457;28;20241;-55
2021/12/31 17:41:11;;;;;;;5.03;4.53;;;14.90;99.90;;;;;;4954721;28;20209;-54
2021/12/31 17:43:37;;;;;;;4.03;3.73;;;14.90;99.90;;;;;;4955209;28;20181;-52
2021/12/31 17:46:02;;;;;;;5.20;4.67;;;14.90;99.90;;;;;;4953538;28;20618;-57
2021/12/31 17:48:28;;;;;;;5.37;4.97;;;14.90;99.90;;;;;;4951622;28;20196;-57
2021/12/31 17:50:54;;;;;;;5.10;4.70;;;14.90;99.90;;;;;;4951809;28;20216;-54
2021/12/31 17:53:20;;;;;;;3.80;3.50;;;14.90;99.90;;;;;;4953988;28;20198;-57
2021/12/31 17:55:47;;;;;;;4.30;3.90;;;14.90;99.90;;;;;;4958876;28;21035;-55
2021/12/31 17:58:15;;;;;;;3.90;3.60;;;14.90;99.90;;;;;;4960495;28;20443;-52
2021/12/31 18:00:41;;;;;;;4.60;4.30;;;15.00;99.90;;;;;;4956437;28;20472;-52
2021/12/31 18:03:06;;;;;;;4.07;3.67;;;15.00;99.90;;;;;;4956439;28;20429;-57
2021/12/31 18:05:32;;;;;;;3.97;3.67;;;15.00;99.90;;;;;;4957146;28;20441;-56
2021/12/31 18:07:57;;;;;;;5.20;4.70;;;15.00;99.90;;;;;;4965411;28;20216;-52
2021/12/31 18:10:23;;;;;;;4.30;4.00;;;15.00;99.90;;;;;;4955680;28;20197;-56
2021/12/31 18:12:49;;;;;;;4.80;4.40;;;15.00;99.90;;;;;;4936350;28;20272;-54
2021/12/31 18:15:16;;;;;;;4.37;3.97;;;15.00;99.90;;;;;;4954253;28;20268;-52
2021/12/31 18:17:41;;;;;;;4.37;3.97;;;15.00;99.90;;;;;;4953204;28;20185;-55
2021/12/31 18:20:07;;;;;;;5.00;4.60;;;15.00;99.90;;;;;;4938339;29;20462;-56
2021/12/31 18:22:33;;;;;;;5.50;4.43;;;14.90;99.90;;;;;;4950133;28;20197;-57
2021/12/31 18:24:58;;;;;;;3.57;3.27;;;14.90;99.90;;;;;;4960440;28;20998;-57
2021/12/31 18:27:24;;;;;;;3.60;3.40;;;14.80;99.90;;;;;;4956751;28;20190;-51
2021/12/31 18:29:50;;;;;;;3.93;3.63;;;14.90;99.90;;;;;;4952106;28;20213;-50
2021/12/31 18:32:15;;;;;;;4.60;4.20;;;14.80;99.90;;;;;;4955531;28;20660;-53
2021/12/31 18:34:41;;;;;;;4.13;3.67;;;14.80;99.90;;;;;;4957711;28;20275;-51
2021/12/31 18:37:07;;;;;;;3.67;3.47;;;14.70;99.90;;;;;;4957278;28;20190;-51